Time;durP1;ratioP1;P1;durP2;ratioP2;P2;SDS_P1;SDS_P2;PMS_P1;PMS_P2;Temp;Humidity;BMP_temperature;BMP_pressure;BME280_temperature;BME280_humidity;BME280_pressure;Samples;Min_cycle;Max_cycle;Signal;HPM_P1;HPM_P2
2020/12/10 00:00:25;;;;;;;46.15;20.38;;;1.90;99.90;;;;;;5023848;28;20050;-84
2020/12/10 00:02:50;;;;;;;46.80;19.25;;;1.90;99.90;;;;;;5013358;28;20045;-85
2020/12/10 00:05:17;;;;;;;47.30;21.25;;;1.90;99.90;;;;;;5031492;28;20037;-85
2020/12/10 00:07:43;;;;;;;48.20;20.25;;;1.80;99.90;;;;;;5024043;28;20529;-84
2020/12/10 00:10:09;;;;;;;44.38;20.60;;;1.90;99.90;;;;;;5017638;28;20045;-84
2020/12/10 00:12:39;;;;;;;44.25;19.90;;;1.90;99.90;;;;;;5035512;28;20056;-86
2020/12/10 00:15:05;;;;;;;47.60;21.05;;;1.90;99.90;;;;;;5030626;28;20050;-84
2020/12/10 00:17:30;;;;;;;51.30;20.45;;;1.90;99.90;;;;;;5017764;28;20128;-83
2020/12/10 00:19:56;;;;;;;46.85;20.13;;;1.80;99.90;;;;;;5017465;28;20045;-82
2020/12/10 00:22:23;;;;;;;57.65;21.55;;;1.80;99.90;;;;;;5019665;28;20042;-82
2020/12/10 00:24:50;;;;;;;43.78;20.10;;;1.90;99.90;;;;;;5022036;28;20109;-84
2020/12/10 00:27:17;;;;;;;47.83;20.80;;;1.90;99.90;;;;;;5013171;28;20121;-82
2020/12/10 00:29:45;;;;;;;52.35;20.40;;;1.90;99.90;;;;;;5014593;28;20038;-82
2020/12/10 00:32:14;;;;;;;44.75;19.70;;;1.90;99.90;;;;;;5016038;28;20030;-84
2020/12/10 00:34:41;;;;;;;44.55;20.13;;;1.90;99.90;;;;;;5029356;28;20388;-84
2020/12/10 00:37:07;;;;;;;43.10;19.80;;;1.90;99.90;;;;;;5012555;28;20082;-83
2020/12/10 00:39:34;;;;;;;49.63;18.38;;;1.90;99.90;;;;;;5010806;28;20042;-83
2020/12/10 00:42:00;;;;;;;43.95;18.75;;;1.90;99.90;;;;;;5012101;28;20125;-83
2020/12/10 00:44:26;;;;;;;40.90;18.70;;;2.00;99.90;;;;;;5011655;28;20147;-82
2020/12/10 00:46:52;;;;;;;42.47;18.77;;;2.00;99.90;;;;;;5013518;28;21597;-83
2020/12/10 00:49:19;;;;;;;45.40;18.33;;;2.10;99.90;;;;;;5012303;28;20042;-84
2020/12/10 00:51:46;;;;;;;44.83;19.17;;;2.10;99.90;;;;;;5010870;28;20066;-83
2020/12/10 00:54:12;;;;;;;44.17;18.42;;;2.00;99.90;;;;;;5027077;28;20587;-85
2020/12/10 00:56:38;;;;;;;39.15;18.02;;;2.00;99.90;;;;;;5005077;28;20042;-82
2020/12/10 00:59:03;;;;;;;40.67;17.23;;;2.00;99.90;;;;;;5006008;28;20401;-85
2020/12/10 01:01:29;;;;;;;38.42;17.38;;;1.90;99.90;;;;;;5005964;28;20430;-83
2020/12/10 01:03:55;;;;;;;43.63;18.70;;;2.20;99.90;;;;;;5005630;28;20112;-84
2020/12/10 01:06:20;;;;;;;45.55;18.63;;;2.00;99.90;;;;;;5004182;28;20034;-84
2020/12/10 01:08:46;;;;;;;41.60;18.27;;;2.00;99.90;;;;;;5010448;28;20056;-83
2020/12/10 01:11:11;;;;;;;36.67;16.58;;;2.00;99.90;;;;;;5007091;28;20065;-83
2020/12/10 01:13:37;;;;;;;42.83;17.65;;;2.00;99.90;;;;;;5005745;28;20053;-84
2020/12/10 01:16:04;;;;;;;40.10;17.33;;;1.90;99.90;;;;;;5005297;28;20042;-82
2020/12/10 01:18:29;;;;;;;38.80;17.38;;;2.00;99.90;;;;;;5005641;28;20058;-85
2020/12/10 01:20:55;;;;;;;44.25;19.10;;;2.00;99.90;;;;;;5005818;28;20069;-84
2020/12/10 01:23:20;;;;;;;39.10;17.45;;;2.10;99.90;;;;;;5007637;28;20057;-83
2020/12/10 01:25:46;;;;;;;43.13;18.05;;;2.00;99.90;;;;;;5020529;28;20030;-84
2020/12/10 01:28:11;;;;;;;41.28;17.30;;;1.90;99.90;;;;;;4993772;28;20523;-84
2020/12/10 01:30:37;;;;;;;36.90;16.83;;;1.90;99.90;;;;;;5008293;28;20057;-83
2020/12/10 01:33:03;;;;;;;42.35;19.38;;;1.90;99.90;;;;;;5020710;28;20101;-82
2020/12/10 01:35:28;;;;;;;39.00;16.73;;;1.90;99.90;;;;;;4977637;28;20049;-85
2020/12/10 01:37:54;;;;;;;38.83;16.92;;;1.90;99.90;;;;;;4990485;28;20056;-82
2020/12/10 01:40:20;;;;;;;39.15;17.92;;;1.90;99.90;;;;;;4988669;28;20037;-82
2020/12/10 01:42:45;;;;;;;40.53;17.10;;;1.90;99.90;;;;;;4976775;28;20046;-81
2020/12/10 01:45:11;;;;;;;38.22;17.10;;;1.90;99.90;;;;;;4952797;28;20053;-82
2020/12/10 01:47:38;;;;;;;38.35;16.80;;;2.00;99.90;;;;;;4996247;28;20042;-82
2020/12/10 01:50:04;;;;;;;35.42;16.98;;;1.90;99.90;;;;;;4987831;28;20091;-83
2020/12/10 01:52:30;;;;;;;42.58;17.25;;;1.90;99.90;;;;;;4958008;28;20111;-84
2020/12/10 01:54:56;;;;;;;39.47;17.65;;;1.90;99.90;;;;;;4971939;28;20042;-85
2020/12/10 01:57:21;;;;;;;39.08;16.70;;;1.90;99.90;;;;;;4999291;28;20061;-84
2020/12/10 01:59:48;;;;;;;41.42;18.52;;;1.90;99.90;;;;;;4983710;28;20054;-84
2020/12/10 02:02:14;;;;;;;39.58;18.30;;;2.00;99.90;;;;;;4986897;28;20046;-83
2020/12/10 02:04:40;;;;;;;38.33;16.63;;;2.00;99.90;;;;;;4996036;28;20038;-84
2020/12/10 02:07:06;;;;;;;49.63;17.50;;;2.00;99.90;;;;;;4972763;28;20037;-83
2020/12/10 02:09:32;;;;;;;34.67;16.15;;;2.00;99.90;;;;;;4983211;28;20096;-83
2020/12/10 02:11:58;;;;;;;38.35;17.45;;;2.10;99.90;;;;;;4977788;28;20045;-84
2020/12/10 02:14:34;;;;;;;41.35;18.27;;;2.00;99.90;;;;;;5002595;28;20045;-83
2020/12/10 02:17:02;;;;;;;40.78;17.67;;;2.00;99.90;;;;;;5018938;28;20427;-84
2020/12/10 02:19:27;;;;;;;39.05;17.13;;;2.10;99.90;;;;;;5006874;28;20034;-83
2020/12/10 02:21:53;;;;;;;40.28;16.45;;;2.00;99.90;;;;;;5003340;28;20100;-85
2020/12/10 02:24:19;;;;;;;34.13;15.40;;;2.00;99.90;;;;;;5008294;28;20398;-83
2020/12/10 02:26:45;;;;;;;36.70;17.42;;;2.00;99.90;;;;;;4984096;28;20071;-83
2020/12/10 02:29:11;;;;;;;37.38;16.90;;;2.00;99.90;;;;;;4961353;28;20181;-83
2020/12/10 02:31:37;;;;;;;40.88;17.42;;;2.00;99.90;;;;;;4955202;28;20049;-83
2020/12/10 02:34:06;;;;;;;44.20;17.42;;;2.00;99.90;;;;;;4967118;28;20037;-84
2020/12/10 02:36:33;;;;;;;37.35;18.25;;;2.00;99.90;;;;;;4987695;28;20049;-85
2020/12/10 02:38:59;;;;;;;36.85;16.58;;;2.00;99.90;;;;;;4959710;28;20038;-84
2020/12/10 02:41:24;;;;;;;43.17;17.58;;;2.10;99.90;;;;;;4984762;28;20042;-83
2020/12/10 02:43:50;;;;;;;42.33;19.35;;;2.00;99.90;;;;;;4985506;28;20149;-86
2020/12/10 02:46:16;;;;;;;44.78;19.38;;;2.00;99.90;;;;;;4983694;28;20056;-83
2020/12/10 02:48:42;;;;;;;41.00;18.50;;;2.00;99.90;;;;;;5010487;28;20066;-85
2020/12/10 02:51:08;;;;;;;45.03;18.75;;;1.90;99.90;;;;;;4987626;28;20034;-84
2020/12/10 02:53:34;;;;;;;44.55;20.27;;;2.00;99.90;;;;;;4961222;28;20040;-83
2020/12/10 02:56:00;;;;;;;45.22;19.67;;;1.90;99.90;;;;;;4988545;28;20048;-85
2020/12/10 02:58:26;;;;;;;49.30;20.25;;;2.00;99.90;;;;;;4959039;28;20045;-87
2020/12/10 03:00:51;;;;;;;47.78;19.55;;;2.00;99.90;;;;;;4957467;28;20038;-83
2020/12/10 03:03:17;;;;;;;49.42;20.63;;;2.00;99.90;;;;;;4947318;28;20046;-86
2020/12/10 03:05:43;;;;;;;51.03;21.13;;;1.90;99.90;;;;;;4988773;28;20053;-86
2020/12/10 03:08:09;;;;;;;47.78;21.10;;;1.90;99.90;;;;;;5007061;28;20116;-83
2020/12/10 03:10:35;;;;;;;60.30;22.63;;;1.90;99.90;;;;;;4992249;28;20112;-82
2020/12/10 03:13:02;;;;;;;54.00;20.60;;;1.90;99.90;;;;;;5000206;28;20437;-83
2020/12/10 03:15:27;;;;;;;44.15;19.23;;;1.90;99.90;;;;;;4984473;28;20042;-85
2020/12/10 03:17:53;;;;;;;55.15;21.48;;;1.20;99.90;;;;;;5002972;28;20586;-87
2020/12/10 03:20:18;;;;;;;51.63;21.30;;;1.90;99.90;;;;;;5003283;28;20098;-85
2020/12/10 03:22:44;;;;;;;46.15;21.17;;;1.90;99.90;;;;;;5003678;28;20689;-83
2020/12/10 03:25:09;;;;;;;57.65;22.55;;;1.90;99.90;;;;;;5002958;28;20223;-83
2020/12/10 03:27:35;;;;;;;57.10;22.55;;;1.90;99.90;;;;;;4986121;28;20046;-83
2020/12/10 03:30:01;;;;;;;50.00;22.17;;;1.90;99.90;;;;;;4957035;28;20040;-84
2020/12/10 03:32:26;;;;;;;57.88;22.80;;;2.00;99.90;;;;;;4988770;28;20037;-83
2020/12/10 03:34:53;;;;;;;56.08;23.35;;;1.90;99.90;;;;;;4957544;28;20057;-84
2020/12/10 03:37:18;;;;;;;58.53;22.67;;;1.80;99.90;;;;;;4957480;28;20049;-83
2020/12/10 03:39:44;;;;;;;54.33;21.90;;;2.00;99.90;;;;;;4919832;28;20486;-85
2020/12/10 03:42:10;;;;;;;57.13;21.20;;;1.90;99.90;;;;;;4972998;28;20039;-83
2020/12/10 03:44:36;;;;;;;49.72;21.95;;;1.80;99.90;;;;;;4954831;28;20045;-83
2020/12/10 03:47:01;;;;;;;58.30;22.52;;;1.80;99.90;;;;;;4962941;28;20042;-83
2020/12/10 03:49:27;;;;;;;53.38;23.88;;;1.80;99.90;;;;;;4966419;28;20041;-85
2020/12/10 03:51:52;;;;;;;57.75;22.38;;;1.30;99.90;;;;;;4959053;28;20568;-83
2020/12/10 03:54:18;;;;;;;50.40;22.20;;;1.80;99.90;;;;;;4983301;28;20068;-83
2020/12/10 03:56:43;;;;;;;59.58;23.15;;;1.80;99.90;;;;;;5012690;28;20042;-85
2020/12/10 03:59:09;;;;;;;57.33;22.85;;;1.80;99.90;;;;;;5021957;28;20133;-82
2020/12/10 04:01:35;;;;;;;57.10;21.13;;;1.80;99.90;;;;;;5006751;28;20042;-81
2020/12/10 04:04:00;;;;;;;49.53;20.80;;;1.80;99.90;;;;;;5006476;28;20116;-81
2020/12/10 04:06:26;;;;;;;53.63;22.58;;;1.80;99.90;;;;;;5023311;28;20042;-82
2020/12/10 04:08:52;;;;;;;58.40;23.25;;;1.80;99.90;;;;;;5007807;28;20038;-82
2020/12/10 04:11:18;;;;;;;52.20;22.75;;;1.80;99.90;;;;;;5008671;28;20038;-83
2020/12/10 04:13:44;;;;;;;53.00;22.52;;;1.80;99.90;;;;;;5004744;28;20034;-82
2020/12/10 04:16:09;;;;;;;55.58;21.50;;;1.80;99.90;;;;;;5005837;28;20052;-84
2020/12/10 04:18:38;;;;;;;50.75;22.73;;;1.80;99.90;;;;;;5004738;28;20126;-81
2020/12/10 04:21:05;;;;;;;52.15;21.60;;;1.80;99.90;;;;;;5005704;28;20049;-81
2020/12/10 04:23:30;;;;;;;53.53;22.48;;;1.90;99.90;;;;;;5019238;28;20141;-84
2020/12/10 04:25:56;;;;;;;52.75;22.85;;;1.80;99.90;;;;;;5003161;28;20049;-82
2020/12/10 04:28:22;;;;;;;50.60;21.13;;;1.90;99.90;;;;;;5004161;28;20037;-82
2020/12/10 04:30:48;;;;;;;53.65;21.75;;;1.90;99.90;;;;;;5005238;28;20092;-82
2020/12/10 04:33:14;;;;;;;54.65;22.85;;;1.90;99.90;;;;;;5008532;28;20030;-82
2020/12/10 04:35:40;;;;;;;47.80;21.08;;;1.90;99.90;;;;;;5007223;28;20038;-83
2020/12/10 04:38:06;;;;;;;57.95;22.77;;;1.90;99.90;;;;;;5024683;28;20038;-83
2020/12/10 04:40:33;;;;;;;51.10;21.90;;;2.00;99.90;;;;;;5017079;28;20050;-83
2020/12/10 04:43:02;;;;;;;62.58;23.02;;;1.90;99.90;;;;;;5008352;28;20041;-81
2020/12/10 04:45:28;;;;;;;52.05;22.48;;;1.90;99.90;;;;;;5002223;28;20171;-84
2020/12/10 04:47:55;;;;;;;59.28;22.83;;;1.80;99.90;;;;;;5004702;28;20610;-82
2020/12/10 04:50:23;;;;;;;59.17;22.48;;;1.80;99.90;;;;;;5006367;28;20065;-82
2020/12/10 04:52:52;;;;;;;54.15;22.30;;;1.80;99.90;;;;;;5011750;28;20048;-84
2020/12/10 04:55:18;;;;;;;55.88;23.35;;;1.80;99.90;;;;;;5006961;28;20041;-82
2020/12/10 04:57:44;;;;;;;51.72;22.80;;;1.80;99.90;;;;;;5005955;28;20057;-81
2020/12/10 05:00:13;;;;;;;58.88;24.50;;;1.80;99.90;;;;;;5006631;28;20042;-82
2020/12/10 05:02:39;;;;;;;56.22;23.27;;;1.90;99.90;;;;;;5024448;28;20054;-82
2020/12/10 05:05:21;;;;;;;59.38;23.40;;;1.90;99.90;;;;;;5005299;28;20064;-84
2020/12/10 05:07:46;;;;;;;57.70;21.23;;;1.80;99.90;;;;;;5005330;28;20045;-83
2020/12/10 05:10:12;;;;;;;68.95;23.50;;;1.80;99.90;;;;;;5006717;28;20092;-83
2020/12/10 05:12:37;;;;;;;57.55;23.38;;;1.80;99.90;;;;;;5009337;28;20045;-83
2020/12/10 05:15:03;;;;;;;61.28;24.70;;;1.80;99.90;;;;;;5026536;28;20052;-86
2020/12/10 05:17:29;;;;;;;61.30;24.60;;;1.80;99.90;;;;;;5030253;28;20113;-85
2020/12/10 05:19:56;;;;;;;72.60;25.75;;;1.80;99.90;;;;;;5020845;28;20057;-83
2020/12/10 05:22:23;;;;;;;63.30;25.10;;;1.70;99.90;;;;;;5009923;28;20064;-84
2020/12/10 05:24:59;;;;;;;62.58;24.83;;;1.70;99.90;;;;;;5006048;28;20030;-85
2020/12/10 05:27:24;;;;;;;61.88;23.58;;;2.20;99.90;;;;;;5004152;28;20088;-84
2020/12/10 05:29:51;;;;;;;64.50;23.85;;;1.70;99.90;;;;;;5021612;28;20042;-83
2020/12/10 05:32:35;;;;;;;63.90;25.30;;;1.70;99.90;;;;;;5005194;28;20076;-84
2020/12/10 05:35:22;;;;;;;63.90;26.00;;;1.70;99.90;;;;;;5012306;28;20064;-82
2020/12/10 05:37:49;;;;;;;66.00;26.35;;;1.70;99.90;;;;;;5011708;28;20038;-84
2020/12/10 05:40:15;;;;;;;57.83;23.70;;;1.80;99.90;;;;;;5010412;28;20046;-84
2020/12/10 05:42:51;;;;;;;62.97;25.42;;;1.80;99.90;;;;;;5016132;28;20045;-88
2020/12/10 05:45:20;;;;;;;62.85;25.17;;;1.80;99.90;;;;;;5022579;28;20046;-82
2020/12/10 05:47:47;;;;;;;55.00;22.05;;;1.80;99.90;;;;;;5008334;28;20074;-83
2020/12/10 05:50:14;;;;;;;60.33;24.83;;;1.80;99.90;;;;;;5007720;28;20038;-83
2020/12/10 05:53:12;;;;;;;55.90;23.17;;;1.80;99.90;;;;;;5009245;28;20607;-83
2020/12/10 05:55:45;;;;;;;57.63;24.65;;;1.70;99.90;;;;;;5022535;28;20049;-88
2020/12/10 05:58:11;;;;;;;58.50;23.85;;;1.70;99.90;;;;;;5029993;28;20022;-87
2020/12/10 06:00:38;;;;;;;60.00;24.55;;;1.70;99.90;;;;;;5011737;28;20541;-84
2020/12/10 06:03:04;;;;;;;62.28;23.77;;;2.30;99.90;;;;;;5002640;28;20037;-83
2020/12/10 06:05:30;;;;;;;62.17;23.38;;;1.70;99.90;;;;;;5005523;28;20034;-84
2020/12/10 06:08:06;;;;;;;56.50;23.40;;;1.70;99.90;;;;;;5008809;28;20033;-84
2020/12/10 06:10:39;;;;;;;54.78;22.08;;;1.80;99.90;;;;;;5029991;28;20034;-84
2020/12/10 06:13:14;;;;;;;52.65;20.98;;;1.70;99.90;;;;;;5017505;28;20038;-85
2020/12/10 06:15:39;;;;;;;55.10;21.60;;;1.70;99.90;;;;;;5016114;28;20049;-84
2020/12/10 06:18:09;;;;;;;51.15;20.83;;;1.70;99.90;;;;;;5009654;28;20038;-83
2020/12/10 06:20:41;;;;;;;46.13;19.63;;;1.70;99.90;;;;;;5013433;28;20026;-86
2020/12/10 06:23:26;;;;;;;55.35;21.67;;;1.60;99.90;;;;;;5010565;28;20041;-81
2020/12/10 06:25:55;;;;;;;54.45;21.55;;;1.70;99.90;;;;;;5007823;28;20457;-83
2020/12/10 06:28:24;;;;;;;64.50;28.38;;;1.70;99.90;;;;;;5012459;28;20044;-85
2020/12/10 06:31:19;;;;;;;55.80;22.50;;;1.70;99.90;;;;;;5009415;28;20593;-82
2020/12/10 06:33:46;;;;;;;47.13;19.50;;;1.80;99.90;;;;;;4988489;28;20056;-83
2020/12/10 06:36:21;;;;;;;46.40;21.77;;;1.70;99.90;;;;;;5003940;28;20030;-81
2020/12/10 06:38:51;;;;;;;49.95;20.80;;;1.80;99.90;;;;;;5005002;28;20045;-81
2020/12/10 06:41:17;;;;;;;53.65;21.95;;;1.80;99.90;;;;;;5007745;28;20026;-80
2020/12/10 06:43:43;;;;;;;53.63;22.05;;;1.80;99.90;;;;;;5009160;28;20046;-82
2020/12/10 06:46:09;;;;;;;56.28;21.70;;;1.80;99.90;;;;;;5012102;28;20037;-80
2020/12/10 06:48:46;;;;;;;57.47;21.58;;;1.90;99.90;;;;;;5010493;28;20038;-78
2020/12/10 06:51:20;;;;;;;51.53;20.77;;;1.80;99.90;;;;;;5011454;28;20511;-80
2020/12/10 06:54:00;;;;;;;50.53;22.17;;;1.80;99.90;;;;;;5011331;28;20458;-79
2020/12/10 06:56:29;;;;;;;57.47;20.33;;;1.70;99.90;;;;;;5025614;28;20058;-80
2020/12/10 06:58:58;;;;;;;59.38;22.38;;;1.80;99.90;;;;;;5008823;28;20038;-79
2020/12/10 07:01:38;;;;;;;54.17;23.25;;;1.80;99.90;;;;;;5010497;28;20038;-80
2020/12/10 07:07:27;;;;;;;57.13;22.42;;;1.80;99.90;;;;;;5006952;28;20044;-79
2020/12/10 07:09:54;;;;;;;57.38;21.83;;;1.80;99.90;;;;;;5008763;28;20034;-79
2020/12/10 07:12:33;;;;;;;57.65;22.27;;;1.80;99.90;;;;;;5008327;28;20034;-80
2020/12/10 07:15:10;;;;;;;46.22;21.27;;;1.80;99.90;;;;;;5009357;28;20048;-79
2020/12/10 07:17:36;;;;;;;51.67;21.00;;;1.80;99.90;;;;;;5010013;28;20038;-80
2020/12/10 07:20:02;;;;;;;54.67;21.38;;;1.90;99.90;;;;;;5025669;28;20083;-81
2020/12/10 07:22:28;;;;;;;50.80;19.58;;;1.80;99.90;;;;;;5007349;28;20481;-81
2020/12/10 07:24:53;;;;;;;57.20;22.70;;;1.80;99.90;;;;;;5007911;28;20042;-81
2020/12/10 07:27:19;;;;;;;57.10;21.10;;;1.90;99.90;;;;;;5002934;28;20038;-79
2020/12/10 07:29:51;;;;;;;46.58;19.08;;;1.50;99.90;;;;;;5008806;28;20049;-79
2020/12/10 07:32:17;;;;;;;47.85;19.02;;;1.90;99.90;;;;;;5005672;28;20040;-80
2020/12/10 07:34:44;;;;;;;53.22;20.15;;;1.90;99.90;;;;;;5006044;28;20053;-79
2020/12/10 07:37:12;;;;;;;45.10;20.08;;;1.90;99.90;;;;;;5000834;28;20208;-79
2020/12/10 07:39:38;;;;;;;47.00;20.63;;;2.00;99.90;;;;;;5028757;28;20177;-80
2020/12/10 07:42:04;;;;;;;50.53;20.10;;;1.90;99.90;;;;;;5027077;28;20080;-78
2020/12/10 07:44:31;;;;;;;53.55;22.15;;;1.90;99.90;;;;;;5020628;28;20434;-79
2020/12/10 07:46:58;;;;;;;47.30;20.83;;;1.90;99.90;;;;;;5017057;28;20040;-78
2020/12/10 07:49:31;;;;;;;53.83;21.55;;;1.90;99.90;;;;;;5017605;28;20037;-78
2020/12/10 07:52:15;;;;;;;56.17;21.90;;;1.90;99.90;;;;;;5012037;28;20048;-78
2020/12/10 07:54:47;;;;;;;56.23;19.40;;;1.90;99.90;;;;;;5009640;28;20053;-79
2020/12/10 07:57:29;;;;;;;47.63;18.80;;;1.90;99.90;;;;;;5008195;28;20308;-79
2020/12/10 08:00:01;;;;;;;50.53;21.00;;;1.90;99.90;;;;;;5011791;28;20045;-80
2020/12/10 08:02:46;;;;;;;54.25;21.33;;;1.90;99.90;;;;;;5012387;28;20034;-79
2020/12/10 08:05:12;;;;;;;;;;;1.90;99.90;;;;;;5007956;28;20046;-79
2020/12/10 08:07:38;;;;;;;57.28;21.83;;;2.00;99.90;;;;;;5008296;28;19913;-79
2020/12/10 08:10:03;;;;;;;50.38;20.15;;;1.90;99.90;;;;;;5009310;28;20167;-79
2020/12/10 08:12:29;;;;;;;52.45;20.50;;;2.00;99.90;;;;;;5005071;28;20113;-79
2020/12/10 08:14:54;;;;;;;51.50;21.20;;;2.00;99.90;;;;;;5004400;28;21151;-78
2020/12/10 08:17:20;;;;;;;50.47;19.30;;;2.10;99.90;;;;;;5001989;28;20314;-80
2020/12/10 08:19:56;;;;;;;46.80;20.02;;;2.10;99.90;;;;;;5007902;28;20068;-80
2020/12/10 08:22:23;;;;;;;48.88;19.33;;;2.10;99.90;;;;;;5006379;28;20129;-79
2020/12/10 08:24:49;;;;;;;50.20;20.02;;;2.10;99.90;;;;;;5024509;28;20371;-79
2020/12/10 08:27:17;;;;;;;45.50;19.83;;;2.10;99.90;;;;;;5006920;28;20045;-79
2020/12/10 08:30:03;;;;;;;46.10;19.40;;;2.10;99.90;;;;;;5011138;28;20104;-79
2020/12/10 08:32:29;;;;;;;47.28;19.25;;;2.20;99.90;;;;;;5010370;28;20548;-78
2020/12/10 08:35:03;;;;;;;48.22;20.50;;;2.10;99.90;;;;;;5007309;28;20057;-78
2020/12/10 08:37:39;;;;;;;42.85;18.67;;;2.20;99.90;;;;;;5004445;28;20037;-80
2020/12/10 08:40:06;;;;;;;42.20;18.40;;;2.10;99.90;;;;;;5010161;28;20825;-80
2020/12/10 08:42:32;;;;;;;51.75;18.92;;;2.20;99.90;;;;;;5006768;28;20045;-80
2020/12/10 08:44:57;;;;;;;46.92;18.67;;;2.30;99.90;;;;;;5021944;28;20061;-80
2020/12/10 08:47:24;;;;;;;46.33;18.65;;;2.30;99.90;;;;;;5007816;28;20056;-79
2020/12/10 08:50:23;;;;;;;47.05;19.30;;;2.30;99.90;;;;;;5029000;28;20101;-80
2020/12/10 08:52:50;;;;;;;43.95;16.38;;;2.30;99.90;;;;;;5013413;28;20038;-78
2020/12/10 08:55:16;;;;;;;50.22;19.35;;;2.40;99.90;;;;;;5009676;28;20101;-79
2020/12/10 08:57:51;;;;;;;40.00;17.70;;;2.40;99.90;;;;;;5009327;28;20696;-78
2020/12/10 09:00:17;;;;;;;34.38;13.95;;;2.40;99.90;;;;;;5009920;28;20053;-79
2020/12/10 09:02:43;;;;;;;35.83;14.95;;;2.40;99.90;;;;;;5012046;28;20052;-80
2020/12/10 09:05:08;;;;;;;26.08;12.05;;;2.40;99.90;;;;;;5011820;28;20061;-80
2020/12/10 09:07:34;;;;;;;19.08;9.57;;;2.40;99.90;;;;;;5023289;28;20565;-78
2020/12/10 09:10:03;;;;;;;19.98;9.02;;;2.40;99.90;;;;;;5024181;28;20048;-78
2020/12/10 09:12:29;;;;;;;22.52;9.77;;;2.30;99.90;;;;;;5028544;28;20037;-79
2020/12/10 09:14:54;;;;;;;24.40;10.88;;;2.30;99.90;;;;;;5021387;28;20050;-79
2020/12/10 09:17:20;;;;;;;25.88;11.35;;;2.30;99.90;;;;;;5017261;28;20105;-79
2020/12/10 09:19:45;;;;;;;28.33;11.95;;;2.30;99.90;;;;;;5012667;28;20046;-79
2020/12/10 09:22:11;;;;;;;28.88;12.30;;;2.30;99.90;;;;;;5009634;28;20070;-81
2020/12/10 09:24:37;;;;;;;26.38;12.02;;;2.30;99.90;;;;;;5007950;28;20587;-80
2020/12/10 09:27:06;;;;;;;26.85;11.30;;;2.30;99.90;;;;;;5008292;28;20033;-78
2020/12/10 09:29:36;;;;;;;26.67;10.77;;;2.40;99.90;;;;;;5008497;28;20077;-78
2020/12/10 09:32:03;;;;;;;22.88;10.20;;;2.30;99.90;;;;;;5006723;28;20517;-78
2020/12/10 09:34:29;;;;;;;22.17;10.25;;;2.40;99.90;;;;;;5007346;28;20108;-79
2020/12/10 09:36:55;;;;;;;19.65;9.25;;;2.40;99.90;;;;;;5011218;28;20105;-78
2020/12/10 09:39:20;;;;;;;19.48;9.38;;;2.50;99.90;;;;;;5012126;28;20046;-80
2020/12/10 09:41:46;;;;;;;19.08;9.10;;;2.50;99.90;;;;;;5010856;28;20046;-79
2020/12/10 09:44:12;;;;;;;21.42;9.57;;;2.60;99.90;;;;;;5007031;28;20068;-78
2020/12/10 09:46:38;;;;;;;22.27;10.45;;;2.70;99.90;;;;;;5019746;28;20449;-81
2020/12/10 09:49:03;;;;;;;21.23;9.57;;;2.80;99.90;;;;;;5008791;28;20548;-80
2020/12/10 09:51:37;;;;;;;18.98;8.68;;;2.80;99.90;;;;;;5007061;28;20231;-78
2020/12/10 09:54:12;;;;;;;20.47;9.63;;;2.90;99.90;;;;;;5008203;28;20029;-78
2020/12/10 09:59:23;;;;;;;20.98;8.43;;;2.90;99.90;;;;;;5009252;28;20030;-79
2020/12/10 10:01:49;;;;;;;19.80;8.70;;;3.10;99.90;;;;;;5013429;28;20073;-78
2020/12/10 10:04:14;;;;;;;19.27;8.70;;;3.00;99.90;;;;;;5015291;28;20050;-79
2020/12/10 10:06:42;;;;;;;18.17;8.73;;;3.10;99.90;;;;;;5012567;28;20070;-80
2020/12/10 10:09:08;;;;;;;18.23;8.60;;;3.10;99.90;;;;;;5014274;28;20046;-80
2020/12/10 10:11:33;;;;;;;23.88;9.88;;;3.00;99.90;;;;;;5021589;28;20038;-79
2020/12/10 10:13:59;;;;;;;24.38;9.20;;;3.10;99.90;;;;;;5039520;28;20045;-80
2020/12/10 10:16:28;;;;;;;25.10;11.02;;;3.20;99.90;;;;;;5020780;28;20049;-79
2020/12/10 10:18:54;;;;;;;18.15;9.25;;;3.00;99.90;;;;;;5017069;28;20116;-81
2020/12/10 10:21:20;;;;;;;23.33;10.00;;;3.10;99.90;;;;;;5014880;28;20045;-79
2020/12/10 10:23:45;;;;;;;21.60;8.85;;;3.20;99.90;;;;;;5016398;28;20640;-79
2020/12/10 10:26:11;;;;;;;28.27;12.77;;;3.20;99.90;;;;;;5011822;28;20141;-82
2020/12/10 10:28:36;;;;;;;21.83;9.90;;;3.20;99.90;;;;;;5015021;28;20511;-81
2020/12/10 10:31:02;;;;;;;16.38;7.82;;;3.20;99.90;;;;;;5015586;28;20037;-78
2020/12/10 10:33:27;;;;;;;15.63;7.95;;;3.20;99.90;;;;;;5008810;28;20053;-79
2020/12/10 10:35:53;;;;;;;17.35;8.20;;;3.20;99.90;;;;;;5013591;28;20177;-79
2020/12/10 10:38:20;;;;;;;24.83;9.68;;;3.20;99.90;;;;;;5014826;28;20033;-79
2020/12/10 10:40:46;;;;;;;23.55;9.95;;;3.20;99.90;;;;;;5012828;28;20602;-79
2020/12/10 10:43:11;;;;;;;24.17;11.05;;;3.30;99.90;;;;;;5021529;28;20064;-79
2020/12/10 10:45:37;;;;;;;22.25;9.95;;;3.20;99.90;;;;;;5041707;28;20061;-77
2020/12/10 10:48:03;;;;;;;21.95;10.82;;;3.30;99.90;;;;;;5040272;28;20064;-78
2020/12/10 10:50:28;;;;;;;28.38;10.32;;;3.40;99.90;;;;;;5033270;28;20088;-79
2020/12/10 10:52:54;;;;;;;25.73;11.18;;;3.40;99.90;;;;;;5007768;28;20046;-79
2020/12/10 10:55:19;;;;;;;21.02;9.90;;;3.30;99.90;;;;;;5012587;28;20046;-79
2020/12/10 10:57:45;;;;;;;22.10;10.48;;;3.30;99.90;;;;;;5011937;28;20038;-79
2020/12/10 11:00:11;;;;;;;21.92;10.00;;;3.20;99.90;;;;;;5014614;28;20041;-79
2020/12/10 11:02:36;;;;;;;24.92;10.77;;;3.30;99.90;;;;;;5014850;28;20521;-80
2020/12/10 11:05:03;;;;;;;26.15;10.80;;;3.40;99.90;;;;;;5014442;28;20090;-79
2020/12/10 11:07:28;;;;;;;29.10;10.90;;;3.40;99.90;;;;;;5011581;28;20048;-79
2020/12/10 11:09:54;;;;;;;27.27;10.40;;;3.50;99.90;;;;;;5014309;28;20486;-79
2020/12/10 11:12:19;;;;;;;22.90;10.13;;;3.60;99.90;;;;;;5022214;28;20088;-79
2020/12/10 11:14:46;;;;;;;24.90;10.85;;;3.50;99.90;;;;;;5006574;28;20623;-78
2020/12/10 11:17:11;;;;;;;21.38;10.48;;;3.50;99.70;;;;;;5006143;28;20038;-79
2020/12/10 11:19:37;;;;;;;24.80;10.15;;;3.50;99.10;;;;;;5007074;28;20049;-78
2020/12/10 11:22:03;;;;;;;20.58;10.07;;;3.50;99.80;;;;;;5007492;28;20663;-79
2020/12/10 11:24:28;;;;;;;21.55;9.88;;;3.50;99.20;;;;;;5003833;28;20168;-79
2020/12/10 11:26:55;;;;;;;25.23;11.90;;;3.50;99.80;;;;;;5003211;28;20041;-78
2020/12/10 11:29:20;;;;;;;27.90;10.73;;;3.40;99.00;;;;;;5005373;28;20038;-79
2020/12/10 11:31:46;;;;;;;22.10;10.75;;;3.40;98.60;;;;;;5004043;28;20780;-78
2020/12/10 11:34:12;;;;;;;31.83;11.25;;;3.40;98.90;;;;;;5004360;28;20129;-78
2020/12/10 11:36:37;;;;;;;27.23;11.95;;;3.40;99.10;;;;;;5004438;28;20096;-79
2020/12/10 11:39:04;;;;;;;29.92;13.13;;;3.40;98.30;;;;;;5010463;28;20053;-79
2020/12/10 11:41:29;;;;;;;28.85;11.82;;;3.40;98.00;;;;;;5007616;28;20033;-79
2020/12/10 11:43:55;;;;;;;32.30;12.98;;;3.40;98.30;;;;;;5011059;28;20169;-79
2020/12/10 11:46:21;;;;;;;26.05;11.73;;;3.50;98.00;;;;;;5001197;28;20585;-78
2020/12/10 11:48:46;;;;;;;26.23;11.88;;;3.50;97.90;;;;;;5005311;28;20117;-78
2020/12/10 11:51:16;;;;;;;21.58;11.13;;;3.50;97.10;;;;;;5000064;28;20038;-78
2020/12/10 11:53:43;;;;;;;26.83;11.13;;;3.50;97.50;;;;;;5003207;28;20086;-78
2020/12/10 11:56:08;;;;;;;24.73;9.70;;;3.40;96.50;;;;;;5009437;28;20076;-79
2020/12/10 11:58:34;;;;;;;25.42;11.60;;;3.40;96.60;;;;;;5029020;28;20067;-79
2020/12/10 12:01:00;;;;;;;26.60;12.18;;;3.40;96.50;;;;;;5028979;28;20049;-79
2020/12/10 12:03:26;;;;;;;26.38;12.07;;;3.50;97.00;;;;;;5032126;28;20453;-79
2020/12/10 12:05:52;;;;;;;28.48;11.95;;;3.50;96.20;;;;;;5015748;28;20658;-79
2020/12/10 12:08:18;;;;;;;25.00;11.88;;;3.50;97.00;;;;;;5012844;28;20037;-78
2020/12/10 12:10:43;;;;;;;27.58;12.73;;;3.50;96.40;;;;;;5014776;28;20045;-79
2020/12/10 12:13:09;;;;;;;29.85;12.45;;;3.40;95.60;;;;;;5013704;28;20129;-79
2020/12/10 12:15:34;;;;;;;30.73;14.05;;;3.40;95.80;;;;;;5015888;28;20048;-78
2020/12/10 12:18:00;;;;;;;26.95;12.45;;;3.40;96.10;;;;;;5025652;28;20118;-78
2020/12/10 12:20:26;;;;;;;30.17;12.55;;;3.40;95.10;;;;;;5042892;28;20613;-78
2020/12/10 12:22:52;;;;;;;30.98;12.90;;;3.40;94.50;;;;;;5033355;28;20033;-80
2020/12/10 12:25:18;;;;;;;27.98;12.20;;;3.30;94.60;;;;;;5028979;28;20029;-79
2020/12/10 12:27:43;;;;;;;32.97;12.93;;;3.30;95.10;;;;;;5027713;28;20038;-79
2020/12/10 12:30:09;;;;;;;28.23;12.43;;;3.30;96.30;;;;;;5022312;28;20049;-79
2020/12/10 12:32:34;;;;;;;35.95;13.32;;;3.30;96.00;;;;;;5033228;28;20038;-79
2020/12/10 12:35:00;;;;;;;37.50;14.48;;;3.40;96.00;;;;;;5029735;28;20057;-80
2020/12/10 12:37:27;;;;;;;30.27;13.38;;;3.40;96.10;;;;;;5010958;28;20319;-80
2020/12/10 12:39:52;;;;;;;31.27;13.60;;;3.50;96.50;;;;;;5009088;28;20034;-78
2020/12/10 12:42:18;;;;;;;33.33;13.25;;;3.40;94.80;;;;;;5017982;28;20094;-78
2020/12/10 12:44:43;;;;;;;28.40;14.00;;;3.50;96.40;;;;;;5025205;28;20116;-78